Colorado Star — 9HA2189 — position and weather

sailwx.info

Track history (hours):
 
Tides and Currents Weather Stations Pressure Air Temp Water Temp Dewpoint Dewpoint Depression Visibility Wind Speed Wind Dir Waves Ship Positions

Colorado Star

Last reported at 2018-Apr-25 01:38 UTC. Time now 2018-Apr-26 21:07 UTC.
Position N 51°13' W 005°51'.

Length 128 m; draft 5.6 m.

Type: Ship. MMSI: 248127000.

Date/timePositionNaut miles runAvg speedWind from/ knotsBaromVisibWave heightAir tempDewpointWater temp
2018-Apr-25 01:38N 51°13' W 005°51'2512.3
2018-Apr-24 23:36N 50°48' W 005°53'412.2
2018-Apr-24 23:15N 50°44' W 005°53'412.1
2018-Apr-24 22:55N 50°40' W 005°53'612.1
2018-Apr-24 22:27N 50°34' W 005°53'712.0
2018-Apr-24 21:53N 50°27' W 005°53'64 8.0
2018-Apr-24 13:49N 49°53' W 004°28'310.1
2018-Apr-24 13:30N 49°54' W 004°23'6 9.8
2018-Apr-24 12:53N 49°54' W 004°14'8 9.9
2018-Apr-24 12:08N 49°55' W 004°02'1010.3
2018-Apr-24 11:10N 49°56' W 003°47'210.5
2018-Apr-24 11:01N 49°57' W 003°44'510.8
2018-Apr-24 10:30N 49°57' W 003°36'611.3
2018-Apr-24 10:00N 49°58' W 003°27'611.7
2018-Apr-24 09:30N 49°58' W 003°18'612.2
2018-Apr-24 09:00N 49°59' W 003°09'612.5
2018-Apr-24 08:30N 49°60' W 002°59'712.7
2018-Apr-24 07:59N 50°01' W 002°49'612.9
2018-Apr-24 07:30N 50°03' W 002°40'712.8
2018-Apr-24 07:00N 50°04' W 002°30'912.7
2018-Apr-24 06:16N 50°07' W 002°16'711.8
2018-Apr-24 05:41N 50°07' W 002°05'211.3
2018-Apr-24 05:30N 50°06' W 002°02'511.0
2018-Apr-24 05:00N 50°03' W 001°55'510.5
2018-Apr-24 04:30N 50°01' W 001°47'5 9.9
2018-Apr-24 04:00N 49°59' W 001°40'5 9.6
2018-Apr-24 03:30N 49°57' W 001°34'5 9.3
2018-Apr-24 03:00N 49°55' W 001°27'5 9.2
2018-Apr-24 02:30N 49°53' W 001°21'4 8.8
2018-Apr-24 02:00N 49°51' W 001°14'4 8.7
2018-Apr-24 01:30N 49°49' W 001°08'5 9.2
2018-Apr-24 01:00N 49°47' W 001°02'5 9.9
2018-Apr-24 00:30N 49°45' W 000°55'510.7
2018-Apr-24 00:00N 49°42' W 000°48'611.1
2018-Apr-23 23:31N 49°40' W 000°40'611.9
2018-Apr-23 23:01N 49°37' W 000°32'612.2
2018-Apr-23 22:30N 49°34' W 000°23'611.8
2018-Apr-23 22:01N 49°32' W 000°15'611.9
2018-Apr-23 21:30N 49°30' W 000°07'510.8
2018-Apr-23 21:01N 49°27' E 000°01'713.4
2018-Apr-23 20:31N 49°26' E 000°11'714.4
2018-Apr-23 20:00N 49°26' E 000°22'713.3
2018-Apr-23 19:30N 49°29' E 000°31'510.2
2018-Apr-23 19:00N 49°26' E 000°38'510.7
2018-Apr-23 18:31N 49°31' E 000°42'4 7.0
2018-Apr-23 18:00N 49°29' E 000°46'4 7.4
2018-Apr-23 17:31N 49°26' E 000°48'3 5.9
2018-Apr-23 17:00N 49°25' E 000°52'4 8.6
2018-Apr-23 16:31N 49°29' E 000°52'3 6.8
2018-Apr-23 16:01N 49°26' E 000°56'5 9.5
2018-Apr-23 15:31N 49°22' E 000°55'3 6.8
2018-Apr-23 15:00N 49°23' E 001°00'4 7.2
2018-Apr-23 14:30N 49°26' E 001°02'2 3.1
2018-Apr-23 13:58N 49°25' E 001°01'0 0.0
2018-Apr-23 13:28N 49°25' E 001°01'0 0.0
2018-Apr-23 12:58N 49°25' E 001°01'0 0.0
2018-Apr-23 12:25N 49°25' E 001°01'0 0.0
2018-Apr-23 11:58N 49°25' E 001°01'0 0.0
2018-Apr-23 11:28N 49°25' E 001°01'0 0.0
2018-Apr-23 10:58N 49°25' E 001°01'0 0.0
2018-Apr-23 10:28N 49°25' E 001°01'0 0.0
2018-Apr-23 09:58N 49°25' E 001°01'0 0.0
2018-Apr-23 09:28N 49°25' E 001°01'0 0.0
2018-Apr-23 08:58N 49°25' E 001°01'0 0.0
2018-Apr-23 08:28N 49°25' E 001°01'0 0.0
2018-Apr-23 07:58N 49°25' E 001°01'0 0.0
2018-Apr-23 07:28N 49°25' E 001°01'0 0.0
2018-Apr-23 06:58N 49°25' E 001°01'0 0.0
2018-Apr-23 06:28N 49°25' E 001°01'0 0.0
2018-Apr-23 05:58N 49°25' E 001°01'0 0.0
2018-Apr-23 05:28N 49°25' E 001°01'0 0.0
2018-Apr-23 04:58N 49°25' E 001°01'0 0.0
2018-Apr-23 04:28N 49°25' E 001°01'0 0.0
2018-Apr-23 03:58N 49°25' E 001°01'0 0.0
2018-Apr-23 03:28N 49°25' E 001°01'0 0.0
2018-Apr-23 02:58N 49°25' E 001°01'0 0.0
2018-Apr-23 02:25N 49°25' E 001°01'0 0.0
2018-Apr-23 01:58N 49°25' E 001°01'0 0.0
2018-Apr-23 01:28N 49°25' E 001°01'0 0.0
2018-Apr-23 00:58N 49°25' E 001°01'0 0.0
2018-Apr-23 00:28N 49°25' E 001°01'0 0.0
2018-Apr-22 23:58N 49°25' E 001°01'0 0.0
2018-Apr-22 23:28N 49°25' E 001°01'0 0.0
2018-Apr-22 22:58N 49°25' E 001°01'0 0.0
2018-Apr-22 22:28N 49°25' E 001°01'0 0.0
2018-Apr-22 21:58N 49°25' E 001°01'0 0.0
2018-Apr-22 21:28N 49°25' E 001°01'0 0.0
2018-Apr-22 20:58N 49°25' E 001°01'0 0.0
2018-Apr-22 20:28N 49°25' E 001°01'0 0.0
2018-Apr-22 19:58N 49°25' E 001°01'0 0.0
2018-Apr-22 19:28N 49°25' E 001°01'0 0.0
2018-Apr-22 18:58N 49°25' E 001°01'0 0.0
2018-Apr-22 18:28N 49°25' E 001°01'0 0.0
2018-Apr-22 17:58N 49°25' E 001°01'0 0.0
2018-Apr-22 17:25N 49°25' E 001°01'0 0.0
2018-Apr-22 16:49N 49°25' E 001°01'0 0.0
2018-Apr-22 16:30N 49°25' E 001°01'2 4.0
2018-Apr-22 16:00N 49°23' E 001°00'3 7.0
2018-Apr-22 15:30N 49°22' E 000°55'611.8
2018-Apr-22 15:00N 49°28' E 000°56'3 6.9
2018-Apr-22 14:30N 49°26' E 000°52'2 4.6
2018-Apr-22 14:00N 49°26' E 000°48'510.2
2018-Apr-22 13:30N 49°31' E 000°46'4 8.5
2018-Apr-22 13:00N 49°29' E 000°40'5 9.2
2018-Apr-22 12:30N 49°27' E 000°34'4 8.8
2018-Apr-22 12:00N 49°28' E 000°27'713.1
2018-Apr-22 11:30N 49°26' E 000°18'712.9
2018-Apr-22 11:00N 49°26' E 000°08'611.4
2018-Apr-22 10:30N 49°28' W 000°01'4 8.8
2018-Apr-22 10:00N 49°29' W 000°07'1 2.5
2018-Apr-22 09:29N 49°29' W 000°09'0 0.0
2018-Apr-22 08:59N 49°29' W 000°09'0 0.0
2018-Apr-22 08:29N 49°29' W 000°09'0 0.0
2018-Apr-22 07:59N 49°29' W 000°09'0 0.0
2018-Apr-22 07:29N 49°29' W 000°09'0 0.0
2018-Apr-22 06:59N 49°29' W 000°09'0 0.0
2018-Apr-22 06:29N 49°29' W 000°09'0 0.0
2018-Apr-22 05:59N 49°29' W 000°09'0 0.1
2018-Apr-22 05:29N 49°29' W 000°09'0 0.0
2018-Apr-22 04:59N 49°29' W 000°09'0 0.0
2018-Apr-22 04:29N 49°29' W 000°09'0 0.0
2018-Apr-22 03:59N 49°29' W 000°09'0 0.1
2018-Apr-22 03:29N 49°29' W 000°09'0 0.0
2018-Apr-22 02:59N 49°29' W 000°09'0 0.1
2018-Apr-22 02:29N 49°29' W 000°09'0 0.0
2018-Apr-22 01:56N 49°29' W 000°09'0 0.2
2018-Apr-22 01:30N 49°29' W 000°09'3 5.8
2018-Apr-22 01:00N 49°31' W 000°13'612.0
2018-Apr-22 00:30N 49°34' W 000°21'612.4
2018-Apr-22 00:00N 49°37' W 000°29'713.0
2018-Apr-21 23:30N 49°40' W 000°38'713.3
2018-Apr-21 23:00N 49°43' W 000°47'713.5
2018-Apr-21 22:30N 49°46' W 000°57'713.5
2018-Apr-21 22:00N 49°49' W 001°06'613.0
2018-Apr-21 21:31N 49°52' W 001°15'612.3
2018-Apr-21 21:01N 49°52' W 001°25'611.0
2018-Apr-21 20:30N 49°52' W 001°33'510.2
2018-Apr-21 20:00N 49°52' W 001°41'5 9.8
2018-Apr-21 19:30N 49°53' W 001°49'5 9.2
2018-Apr-21 19:00N 49°53' W 001°56'4 8.6
2018-Apr-21 18:31N 49°53' W 002°02'4 8.1
2018-Apr-21 18:00N 49°53' W 002°09'4 7.7
2018-Apr-21 17:31N 49°54' W 002°15'6 8.1
2018-Apr-21 16:46N 49°53' W 002°24'2 8.8
2018-Apr-21 16:29N 49°52' W 002°28'4 9.2
2018-Apr-21 16:00N 49°51' W 002°34'6 9.8
2018-Apr-21 15:25N 49°50' W 002°43'410.3
2018-Apr-21 14:59N 49°49' W 002°50'510.6
2018-Apr-21 14:30N 49°48' W 002°57'510.9
2018-Apr-21 14:00N 49°47' W 003°06'611.1
2018-Apr-21 13:30N 49°47' W 003°14'611.2
2018-Apr-21 13:00N 49°47' W 003°23'611.5
2018-Apr-21 12:30N 49°47' W 003°32'611.7
2018-Apr-21 12:00N 49°47' W 003°41'5112.2
2018-Apr-21 07:47N 49°49' W 005°01'412.2
2018-Apr-21 07:28N 49°49' W 005°07'612.0
2018-Apr-21 06:57N 49°49' W 005°16'511.6
2018-Apr-21 06:29N 49°49' W 005°25'611.5
2018-Apr-21 05:55N 49°49' W 005°35'511.4
2018-Apr-21 05:30N 49°49' W 005°42'810.9
2018-Apr-21 04:48N 49°52' W 005°53'6 9.4
2018-Apr-21 04:09N 49°55' W 006°01'311.1
2018-Apr-21 03:53N 49°58' W 006°01'411.2
2018-Apr-21 03:30N 50°02' W 006°01'611.4
2018-Apr-21 03:00N 50°08' W 006°01'611.8
2018-Apr-21 02:28N 50°14' W 006°01'612.1
2018-Apr-21 02:00N 50°20' W 006°01'510.9
2018-Apr-21 01:30N 50°24' W 006°06'611.4
2018-Apr-21 01:00N 50°28' W 006°12'611.3
2018-Apr-21 00:30N 50°32' W 006°19'611.4
2018-Apr-20 23:59N 50°37' W 006°25'511.5
2018-Apr-20 23:30N 50°40' W 006°31'611.6
2018-Apr-20 23:00N 50°45' W 006°38'611.7
2018-Apr-20 22:30N 50°49' W 006°44'611.8
2018-Apr-20 21:58N 50°53' W 006°52'611.9
2018-Apr-20 21:30N 50°57' W 006°58'611.9
2018-Apr-20 21:00N 51°01' W 007°04'612.0
2018-Apr-20 20:30N 51°06' W 007°11'612.0
2018-Apr-20 20:00N 51°10' W 007°18'612.0
2018-Apr-20 19:30N 51°14' W 007°25'611.9
2018-Apr-20 19:00N 51°18' W 007°31'611.9
2018-Apr-20 18:30N 51°22' W 007°38'611.9
2018-Apr-20 18:00N 51°27' W 007°45'611.8
2018-Apr-20 17:30N 51°31' W 007°52'611.6
2018-Apr-20 17:00N 51°35' W 007°58'611.4
2018-Apr-20 16:30N 51°39' W 008°05'611.5
2018-Apr-20 16:00N 51°43' W 008°11'510.1
2018-Apr-20 15:30N 51°47' W 008°16'3 5.5
2018-Apr-20 14:59N 51°50' W 008°16'0 0.0
2018-Apr-20 14:29N 51°50' W 008°16'0 0.0
2018-Apr-20 13:59N 51°50' W 008°16'0 0.0
2018-Apr-20 13:29N 51°50' W 008°16'0 0.0
2018-Apr-20 12:59N 51°50' W 008°16'0 0.0
2018-Apr-20 12:29N 51°50' W 008°16'0 0.0
2018-Apr-20 11:59N 51°50' W 008°16'0 0.0
2018-Apr-20 11:29N 51°50' W 008°16'0 0.0
2018-Apr-20 10:59N 51°50' W 008°16'0 0.0
2018-Apr-20 10:29N 51°50' W 008°16'0 0.0
2018-Apr-20 09:59N 51°50' W 008°16'0 0.0
2018-Apr-20 09:29N 51°50' W 008°16'0 0.0
2018-Apr-20 08:59N 51°50' W 008°16'0 0.0
2018-Apr-20 08:29N 51°50' W 008°16'0 0.0
2018-Apr-20 07:59N 51°50' W 008°16'0 0.0
2018-Apr-20 07:29N 51°50' W 008°16'0 0.0
2018-Apr-20 06:59N 51°50' W 008°16'0 0.0
2018-Apr-20 06:29N 51°50' W 008°16'0 0.0
2018-Apr-20 05:59N 51°50' W 008°16'0 0.0
2018-Apr-20 05:29N 51°50' W 008°16'0 0.0
2018-Apr-20 04:59N 51°50' W 008°16'0 0.0
2018-Apr-20 04:29N 51°50' W 008°16'0 0.0
2018-Apr-20 03:59N 51°50' W 008°16'0 0.0
2018-Apr-20 03:29N 51°50' W 008°16'0 0.0
2018-Apr-20 02:59N 51°50' W 008°16'0 0.0
2018-Apr-20 02:29N 51°50' W 008°16'0 0.0
2018-Apr-20 01:59N 51°50' W 008°16'0 0.0
2018-Apr-20 01:29N 51°50' W 008°16'0 0.0
2018-Apr-20 00:59N 51°50' W 008°16'0 0.0
2018-Apr-20 00:29N 51°50' W 008°16'0 0.1
2018-Apr-19 23:59N 51°50' W 008°16'0 0.1
2018-Apr-19 23:29N 51°50' W 008°16'0 0.0
2018-Apr-19 22:59N 51°50' W 008°16'0 0.0
2018-Apr-19 22:29N 51°50' W 008°16'0 0.0
2018-Apr-19 21:59N 51°50' W 008°16'0 0.0
2018-Apr-19 21:29N 51°50' W 008°16'0 0.0
2018-Apr-19 20:59N 51°50' W 008°16'0 0.0
2018-Apr-19 20:29N 51°50' W 008°16'0 0.0
2018-Apr-19 19:59N 51°50' W 008°16'0 0.0
2018-Apr-19 19:29N 51°50' W 008°16'0 0.0
2018-Apr-19 18:59N 51°50' W 008°16'0 0.0
2018-Apr-19 18:29N 51°50' W 008°16'0 0.0
2018-Apr-19 17:59N 51°50' W 008°16'0 0.0
2018-Apr-19 17:29N 51°50' W 008°16'0 0.0
2018-Apr-19 16:59N 51°50' W 008°16'0 0.0
2018-Apr-19 16:29N 51°50' W 008°16'0 0.0
2018-Apr-19 15:59N 51°50' W 008°16'0 0.0
2018-Apr-19 15:29N 51°50' W 008°16'0 0.2
2018-Apr-19 15:00N 51°50' W 008°16'3 5.7
2018-Apr-19 14:30N 51°47' W 008°16'1 2.7
2018-Apr-19 13:59N 51°46' W 008°17'0 0.1
2018-Apr-19 13:29N 51°46' W 008°17'0 0.1
2018-Apr-19 12:59N 51°46' W 008°17'0 0.0
2018-Apr-19 12:26N 51°46' W 008°17'0 0.0
2018-Apr-19 11:59N 51°46' W 008°17'0 0.0
2018-Apr-19 11:29N 51°46' W 008°17'0 0.0
2018-Apr-19 10:56N 51°46' W 008°17'0 0.2
2018-Apr-19 10:29N 51°46' W 008°17'0 0.3
2018-Apr-19 09:59N 51°46' W 008°17'0 0.1
2018-Apr-19 09:29N 51°46' W 008°17'0 0.1
2018-Apr-19 08:59N 51°46' W 008°17'0 0.0
2018-Apr-19 08:29N 51°46' W 008°17'0 0.0
2018-Apr-19 07:59N 51°46' W 008°17'0 0.0
2018-Apr-19 07:29N 51°46' W 008°17'0 0.0
2018-Apr-19 06:59N 51°46' W 008°17'0 0.0
2018-Apr-19 06:29N 51°46' W 008°17'0 0.0
2018-Apr-19 05:59N 51°46' W 008°17'0 0.0
2018-Apr-19 05:29N 51°46' W 008°17'0 0.0
2018-Apr-19 04:59N 51°46' W 008°17'0 0.0
2018-Apr-19 04:29N 51°46' W 008°17'0 0.0
2018-Apr-19 03:59N 51°46' W 008°17'0 0.0
2018-Apr-19 03:29N 51°46' W 008°17'0 0.0
2018-Apr-19 02:59N 51°46' W 008°17'0 0.0
2018-Apr-19 02:29N 51°46' W 008°17'0 0.0
2018-Apr-19 01:59N 51°46' W 008°17'0 0.1
2018-Apr-19 01:29N 51°46' W 008°17'0 0.0
2018-Apr-19 00:59N 51°46' W 008°17'0 0.1
2018-Apr-19 00:29N 51°46' W 008°17'0 0.1
2018-Apr-18 23:59N 51°46' W 008°17'0 0.0
2018-Apr-18 23:29N 51°46' W 008°17'0 0.0
2018-Apr-18 22:59N 51°46' W 008°17'0 0.2
2018-Apr-18 22:29N 51°46' W 008°17'0 0.1
2018-Apr-18 21:59N 51°46' W 008°17'0 0.1
2018-Apr-18 21:29N 51°46' W 008°17'0 0.0
2018-Apr-18 20:59N 51°46' W 008°17'0 0.0
2018-Apr-18 20:29N 51°46' W 008°17'0 0.0
2018-Apr-18 19:59N 51°46' W 008°17'0 0.0
2018-Apr-18 19:29N 51°46' W 008°17'0 0.0
2018-Apr-18 18:59N 51°46' W 008°17'0 0.0
2018-Apr-18 18:29N 51°46' W 008°17'0 0.0
2018-Apr-18 17:59N 51°46' W 008°17'0 0.0
2018-Apr-18 17:29N 51°46' W 008°17'0 0.0
2018-Apr-18 16:59N 51°46' W 008°17'0 0.0
2018-Apr-18 16:26N 51°46' W 008°17'0 0.0
2018-Apr-18 15:59N 51°46' W 008°17'0 0.0
2018-Apr-18 15:29N 51°46' W 008°17'0 0.0
2018-Apr-18 14:59N 51°46' W 008°17'0 0.0
2018-Apr-18 14:29N 51°46' W 008°17'0 0.0
2018-Apr-18 13:59N 51°46' W 008°17'0 0.0
2018-Apr-18 13:29N 51°46' W 008°17'0 0.0
2018-Apr-18 12:59N 51°46' W 008°17'0 0.1
2018-Apr-18 12:29N 51°46' W 008°17'0 0.1
2018-Apr-18 11:59N 51°46' W 008°17'0 0.0
2018-Apr-18 11:29N 51°46' W 008°17'0 0.0
2018-Apr-18 10:59N 51°46' W 008°17'0 0.0
2018-Apr-18 10:29N 51°46' W 008°17'0 0.0
2018-Apr-18 09:59N 51°46' W 008°17'0 0.0
2018-Apr-18 09:29N 51°46' W 008°17'0 0.0
2018-Apr-18 08:59N 51°46' W 008°17'0 0.0
2018-Apr-18 08:29N 51°46' W 008°17'0 0.0
2018-Apr-18 07:59N 51°46' W 008°17'0 0.0
2018-Apr-18 07:29N 51°46' W 008°17'0 0.0
2018-Apr-18 06:59N 51°46' W 008°17'0 0.0
2018-Apr-18 06:29N 51°46' W 008°17'0 0.0
2018-Apr-18 05:59N 51°46' W 008°17'0 0.0
2018-Apr-18 05:29N 51°46' W 008°17'0 0.0
2018-Apr-18 04:59N 51°46' W 008°17'0 0.0
2018-Apr-18 04:29N 51°46' W 008°17'0 0.0
2018-Apr-18 03:59N 51°46' W 008°17'0 0.0
2018-Apr-18 03:29N 51°46' W 008°17'0 0.0
2018-Apr-18 02:59N 51°46' W 008°17'0 0.0
2018-Apr-18 02:29N 51°46' W 008°17'0 0.0
2018-Apr-18 01:59N 51°46' W 008°17'0 0.0
2018-Apr-18 01:29N 51°46' W 008°17'0 0.1
2018-Apr-18 00:59N 51°46' W 008°17'0 0.0
2018-Apr-18 00:29N 51°46' W 008°17'0 0.0
2018-Apr-17 23:59N 51°46' W 008°17'0 0.1
2018-Apr-17 23:29N 51°46' W 008°17'0 0.1
2018-Apr-17 22:59N 51°46' W 008°17'0 0.0
2018-Apr-17 22:29N 51°46' W 008°17'0 0.1
2018-Apr-17 21:59N 51°46' W 008°17'0 0.1
2018-Apr-17 21:29N 51°46' W 008°17'0 0.1
2018-Apr-17 20:59N 51°46' W 008°17'0 0.0
2018-Apr-17 20:29N 51°46' W 008°17'0 0.0
2018-Apr-17 19:59N 51°46' W 008°17'0 0.0
2018-Apr-17 19:29N 51°46' W 008°17'0 0.0
2018-Apr-17 18:59N 51°46' W 008°17'0 0.0
2018-Apr-17 18:29N 51°46' W 008°17'0 0.0
2018-Apr-17 17:59N 51°46' W 008°17'0 0.0
2018-Apr-17 17:30N 51°46' W 008°17'0 0.6
2018-Apr-17 17:00N 51°46' W 008°17'1 1.7
2018-Apr-17 16:31N 51°46' W 008°15'3 6.2
2018-Apr-17 16:01N 51°43' W 008°15'1 1.5
2018-Apr-17 15:30N 51°44' W 008°15'1 1.7
2018-Apr-17 15:00N 51°44' W 008°16'1 1.9
2018-Apr-17 14:30N 51°45' W 008°17'1 1.4
2018-Apr-17 14:00N 51°46' W 008°17'2 3.4
2018-Apr-17 13:30N 51°45' W 008°15'611.7
2018-Apr-17 13:00N 51°40' W 008°09'511.0
2018-Apr-17 12:31N 51°36' W 008°04'611.2
2018-Apr-17 12:01N 51°33' W 007°57'611.8
2018-Apr-17 11:30N 51°28' W 007°50'611.6
2018-Apr-17 11:00N 51°24' W 007°43'611.4
2018-Apr-17 10:30N 51°21' W 007°36'309 8.6
2018-Apr-15 22:41N 46°53' W 003°40'9 9.6
2018-Apr-15 21:41N 46°47' W 003°29'6 9.7
2018-Apr-15 21:07N 46°44' W 003°22'46 9.7
2018-Apr-15 16:23N 46°20' W 002°25'3 7.5
2018-Apr-15 16:01N 46°19' W 002°21'2 4.9
2018-Apr-15 15:30N 46°18' W 002°18'2 4.8
2018-Apr-15 15:00N 46°17' W 002°15'2 4.7
2018-Apr-15 14:30N 46°16' W 002°12'3 5.2
2018-Apr-15 14:00N 46°15' W 002°08'3 5.8
2018-Apr-15 13:30N 46°14' W 002°04'3 6.1
2018-Apr-15 13:00N 46°13' W 001°60'3 6.2
2018-Apr-15 12:31N 46°12' W 001°56'3 6.4
2018-Apr-15 12:01N 46°11' W 001°52'3 6.9
2018-Apr-15 11:31N 46°10' W 001°47'3 6.8
2018-Apr-15 11:01N 46°08' W 001°42'3 6.8
2018-Apr-15 10:30N 46°08' W 001°38'4 7.6
2018-Apr-15 10:01N 46°07' W 001°32'4 8.2
2018-Apr-15 09:31N 46°07' W 001°26'4 8.1
2018-Apr-15 09:01N 46°06' W 001°21'4 7.3
2018-Apr-15 08:30N 46°07' W 001°15'2 4.6
2018-Apr-15 08:00N 46°09' W 001°14'0 0.0
2018-Apr-15 07:30N 46°09' W 001°14'0 0.0
2018-Apr-15 07:00N 46°09' W 001°14'0 0.0
2018-Apr-15 06:30N 46°09' W 001°14'0 0.0
2018-Apr-15 06:00N 46°09' W 001°14'0 0.0
2018-Apr-15 05:30N 46°09' W 001°14'0 0.0
2018-Apr-15 05:00N 46°09' W 001°14'0 0.0
2018-Apr-15 04:30N 46°09' W 001°14'0 0.0
2018-Apr-15 04:00N 46°09' W 001°14'0 0.0
2018-Apr-15 03:30N 46°09' W 001°14'0 0.0
2018-Apr-15 03:00N 46°09' W 001°14'0 0.0
2018-Apr-15 02:30N 46°09' W 001°14'0 0.0
2018-Apr-15 02:00N 46°09' W 001°14'  
Track history (hours):
 
Tides and Currents Weather Stations Pressure Air Temp Water Temp Dewpoint Dewpoint Depression Visibility Wind Speed Wind Dir Waves Ship Positions

Colorado Star

Last reported at 2018-Apr-25 01:38 UTC. Time now 2018-Apr-26 21:07 UTC.
Position N 51°13' W 005°51'.

Length 128 m; draft 5.6 m.

Type: Ship. MMSI: 248127000.

Date/timePositionNaut miles runAvg speedWind from/ knotsBaromVisibWave heightAir tempDewpointWater temp
2018-Apr-25 01:38N 51°13' W 005°51'2512.3
2018-Apr-24 23:36N 50°48' W 005°53'412.2
2018-Apr-24 23:15N 50°44' W 005°53'412.1
2018-Apr-24 22:55N 50°40' W 005°53'612.1
2018-Apr-24 22:27N 50°34' W 005°53'712.0
2018-Apr-24 21:53N 50°27' W 005°53'64 8.0
2018-Apr-24 13:49N 49°53' W 004°28'310.1
2018-Apr-24 13:30N 49°54' W 004°23'6 9.8
2018-Apr-24 12:53N 49°54' W 004°14'8 9.9
2018-Apr-24 12:08N 49°55' W 004°02'1010.3
2018-Apr-24 11:10N 49°56' W 003°47'210.5
2018-Apr-24 11:01N 49°57' W 003°44'510.8
2018-Apr-24 10:30N 49°57' W 003°36'611.3
2018-Apr-24 10:00N 49°58' W 003°27'611.7
2018-Apr-24 09:30N 49°58' W 003°18'612.2
2018-Apr-24 09:00N 49°59' W 003°09'612.5
2018-Apr-24 08:30N 49°60' W 002°59'712.7
2018-Apr-24 07:59N 50°01' W 002°49'612.9
2018-Apr-24 07:30N 50°03' W 002°40'712.8
2018-Apr-24 07:00N 50°04' W 002°30'912.7
2018-Apr-24 06:16N 50°07' W 002°16'711.8
2018-Apr-24 05:41N 50°07' W 002°05'211.3
2018-Apr-24 05:30N 50°06' W 002°02'511.0
2018-Apr-24 05:00N 50°03' W 001°55'510.5
2018-Apr-24 04:30N 50°01' W 001°47'5 9.9
2018-Apr-24 04:00N 49°59' W 001°40'5 9.6
2018-Apr-24 03:30N 49°57' W 001°34'5 9.3
2018-Apr-24 03:00N 49°55' W 001°27'5 9.2
2018-Apr-24 02:30N 49°53' W 001°21'4 8.8
2018-Apr-24 02:00N 49°51' W 001°14'4 8.7
2018-Apr-24 01:30N 49°49' W 001°08'5 9.2
2018-Apr-24 01:00N 49°47' W 001°02'5 9.9
2018-Apr-24 00:30N 49°45' W 000°55'510.7
2018-Apr-24 00:00N 49°42' W 000°48'611.1
2018-Apr-23 23:31N 49°40' W 000°40'611.9
2018-Apr-23 23:01N 49°37' W 000°32'612.2
2018-Apr-23 22:30N 49°34' W 000°23'611.8
2018-Apr-23 22:01N 49°32' W 000°15'611.9
2018-Apr-23 21:30N 49°30' W 000°07'510.8
2018-Apr-23 21:01N 49°27' E 000°01'713.4
2018-Apr-23 20:31N 49°26' E 000°11'714.4
2018-Apr-23 20:00N 49°26' E 000°22'713.3
2018-Apr-23 19:30N 49°29' E 000°31'510.2
2018-Apr-23 19:00N 49°26' E 000°38'510.7
2018-Apr-23 18:31N 49°31' E 000°42'4 7.0
2018-Apr-23 18:00N 49°29' E 000°46'4 7.4
2018-Apr-23 17:31N 49°26' E 000°48'3 5.9
2018-Apr-23 17:00N 49°25' E 000°52'4 8.6
2018-Apr-23 16:31N 49°29' E 000°52'3 6.8
2018-Apr-23 16:01N 49°26' E 000°56'5 9.5
2018-Apr-23 15:31N 49°22' E 000°55'3 6.8
2018-Apr-23 15:00N 49°23' E 001°00'4 7.2
2018-Apr-23 14:30N 49°26' E 001°02'2 3.1
2018-Apr-23 13:58N 49°25' E 001°01'0 0.0
2018-Apr-23 13:28N 49°25' E 001°01'0 0.0
2018-Apr-23 12:58N 49°25' E 001°01'0 0.0
2018-Apr-23 12:25N 49°25' E 001°01'0 0.0
2018-Apr-23 11:58N 49°25' E 001°01'0 0.0
2018-Apr-23 11:28N 49°25' E 001°01'0 0.0
2018-Apr-23 10:58N 49°25' E 001°01'0 0.0
2018-Apr-23 10:28N 49°25' E 001°01'0 0.0
2018-Apr-23 09:58N 49°25' E 001°01'0 0.0
2018-Apr-23 09:28N 49°25' E 001°01'0 0.0
2018-Apr-23 08:58N 49°25' E 001°01'0 0.0
2018-Apr-23 08:28N 49°25' E 001°01'0 0.0
2018-Apr-23 07:58N 49°25' E 001°01'0 0.0
2018-Apr-23 07:28N 49°25' E 001°01'0 0.0
2018-Apr-23 06:58N 49°25' E 001°01'0 0.0
2018-Apr-23 06:28N 49°25' E 001°01'0 0.0
2018-Apr-23 05:58N 49°25' E 001°01'0 0.0
2018-Apr-23 05:28N 49°25' E 001°01'0 0.0
2018-Apr-23 04:58N 49°25' E 001°01'0 0.0
2018-Apr-23 04:28N 49°25' E 001°01'0 0.0
2018-Apr-23 03:58N 49°25' E 001°01'0 0.0
2018-Apr-23 03:28N 49°25' E 001°01'0 0.0
2018-Apr-23 02:58N 49°25' E 001°01'0 0.0
2018-Apr-23 02:25N 49°25' E 001°01'0 0.0
2018-Apr-23 01:58N 49°25' E 001°01'0 0.0
2018-Apr-23 01:28N 49°25' E 001°01'0 0.0
2018-Apr-23 00:58N 49°25' E 001°01'0 0.0
2018-Apr-23 00:28N 49°25' E 001°01'0 0.0
2018-Apr-22 23:58N 49°25' E 001°01'0 0.0
2018-Apr-22 23:28N 49°25' E 001°01'0 0.0
2018-Apr-22 22:58N 49°25' E 001°01'0 0.0
2018-Apr-22 22:28N 49°25' E 001°01'0 0.0
2018-Apr-22 21:58N 49°25' E 001°01'0 0.0
2018-Apr-22 21:28N 49°25' E 001°01'0 0.0
2018-Apr-22 20:58N 49°25' E 001°01'0 0.0
2018-Apr-22 20:28N 49°25' E 001°01'0 0.0
2018-Apr-22 19:58N 49°25' E 001°01'0 0.0
2018-Apr-22 19:28N 49°25' E 001°01'0 0.0
2018-Apr-22 18:58N 49°25' E 001°01'0 0.0
2018-Apr-22 18:28N 49°25' E 001°01'0 0.0
2018-Apr-22 17:58N 49°25' E 001°01'0 0.0
2018-Apr-22 17:25N 49°25' E 001°01'0 0.0
2018-Apr-22 16:49N 49°25' E 001°01'0 0.0
2018-Apr-22 16:30N 49°25' E 001°01'2 4.0
2018-Apr-22 16:00N 49°23' E 001°00'3 7.0
2018-Apr-22 15:30N 49°22' E 000°55'611.8
2018-Apr-22 15:00N 49°28' E 000°56'3 6.9
2018-Apr-22 14:30N 49°26' E 000°52'2 4.6
2018-Apr-22 14:00N 49°26' E 000°48'510.2
2018-Apr-22 13:30N 49°31' E 000°46'4 8.5
2018-Apr-22 13:00N 49°29' E 000°40'5 9.2
2018-Apr-22 12:30N 49°27' E 000°34'4 8.8
2018-Apr-22 12:00N 49°28' E 000°27'713.1
2018-Apr-22 11:30N 49°26' E 000°18'712.9
2018-Apr-22 11:00N 49°26' E 000°08'611.4
2018-Apr-22 10:30N 49°28' W 000°01'4 8.8
2018-Apr-22 10:00N 49°29' W 000°07'1 2.5
2018-Apr-22 09:29N 49°29' W 000°09'0 0.0
2018-Apr-22 08:59N 49°29' W 000°09'0 0.0
2018-Apr-22 08:29N 49°29' W 000°09'0 0.0
2018-Apr-22 07:59N 49°29' W 000°09'0 0.0
2018-Apr-22 07:29N 49°29' W 000°09'0 0.0
2018-Apr-22 06:59N 49°29' W 000°09'0 0.0
2018-Apr-22 06:29N 49°29' W 000°09'0 0.0
2018-Apr-22 05:59N 49°29' W 000°09'0 0.1
2018-Apr-22 05:29N 49°29' W 000°09'0 0.0
2018-Apr-22 04:59N 49°29' W 000°09'0 0.0
2018-Apr-22 04:29N 49°29' W 000°09'0 0.0
2018-Apr-22 03:59N 49°29' W 000°09'0 0.1
2018-Apr-22 03:29N 49°29' W 000°09'0 0.0
2018-Apr-22 02:59N 49°29' W 000°09'0 0.1
2018-Apr-22 02:29N 49°29' W 000°09'0 0.0
2018-Apr-22 01:56N 49°29' W 000°09'0 0.2
2018-Apr-22 01:30N 49°29' W 000°09'3 5.8
2018-Apr-22 01:00N 49°31' W 000°13'612.0
2018-Apr-22 00:30N 49°34' W 000°21'612.4
2018-Apr-22 00:00N 49°37' W 000°29'713.0
2018-Apr-21 23:30N 49°40' W 000°38'713.3
2018-Apr-21 23:00N 49°43' W 000°47'713.5
2018-Apr-21 22:30N 49°46' W 000°57'713.5
2018-Apr-21 22:00N 49°49' W 001°06'613.0
2018-Apr-21 21:31N 49°52' W 001°15'612.3
2018-Apr-21 21:01N 49°52' W 001°25'611.0
2018-Apr-21 20:30N 49°52' W 001°33'510.2
2018-Apr-21 20:00N 49°52' W 001°41'5 9.8
2018-Apr-21 19:30N 49°53' W 001°49'5 9.2
2018-Apr-21 19:00N 49°53' W 001°56'4 8.6
2018-Apr-21 18:31N 49°53' W 002°02'4 8.1
2018-Apr-21 18:00N 49°53' W 002°09'4 7.7
2018-Apr-21 17:31N 49°54' W 002°15'6 8.1
2018-Apr-21 16:46N 49°53' W 002°24'2 8.8
2018-Apr-21 16:29N 49°52' W 002°28'4 9.2
2018-Apr-21 16:00N 49°51' W 002°34'6 9.8
2018-Apr-21 15:25N 49°50' W 002°43'410.3
2018-Apr-21 14:59N 49°49' W 002°50'510.6
2018-Apr-21 14:30N 49°48' W 002°57'510.9
2018-Apr-21 14:00N 49°47' W 003°06'611.1
2018-Apr-21 13:30N 49°47' W 003°14'611.2
2018-Apr-21 13:00N 49°47' W 003°23'611.5
2018-Apr-21 12:30N 49°47' W 003°32'611.7
2018-Apr-21 12:00N 49°47' W 003°41'5112.2
2018-Apr-21 07:47N 49°49' W 005°01'412.2
2018-Apr-21 07:28N 49°49' W 005°07'612.0
2018-Apr-21 06:57N 49°49' W 005°16'511.6
2018-Apr-21 06:29N 49°49' W 005°25'611.5
2018-Apr-21 05:55N 49°49' W 005°35'511.4
2018-Apr-21 05:30N 49°49' W 005°42'810.9
2018-Apr-21 04:48N 49°52' W 005°53'6 9.4
2018-Apr-21 04:09N 49°55' W 006°01'311.1
2018-Apr-21 03:53N 49°58' W 006°01'411.2
2018-Apr-21 03:30N 50°02' W 006°01'611.4
2018-Apr-21 03:00N 50°08' W 006°01'611.8
2018-Apr-21 02:28N 50°14' W 006°01'612.1
2018-Apr-21 02:00N 50°20' W 006°01'510.9
2018-Apr-21 01:30N 50°24' W 006°06'611.4
2018-Apr-21 01:00N 50°28' W 006°12'611.3
2018-Apr-21 00:30N 50°32' W 006°19'611.4
2018-Apr-20 23:59N 50°37' W 006°25'511.5
2018-Apr-20 23:30N 50°40' W 006°31'611.6
2018-Apr-20 23:00N 50°45' W 006°38'611.7
2018-Apr-20 22:30N 50°49' W 006°44'611.8
2018-Apr-20 21:58N 50°53' W 006°52'611.9
2018-Apr-20 21:30N 50°57' W 006°58'611.9
2018-Apr-20 21:00N 51°01' W 007°04'612.0
2018-Apr-20 20:30N 51°06' W 007°11'612.0
2018-Apr-20 20:00N 51°10' W 007°18'612.0
2018-Apr-20 19:30N 51°14' W 007°25'611.9
2018-Apr-20 19:00N 51°18' W 007°31'611.9
2018-Apr-20 18:30N 51°22' W 007°38'611.9
2018-Apr-20 18:00N 51°27' W 007°45'611.8
2018-Apr-20 17:30N 51°31' W 007°52'611.6
2018-Apr-20 17:00N 51°35' W 007°58'611.4
2018-Apr-20 16:30N 51°39' W 008°05'611.5
2018-Apr-20 16:00N 51°43' W 008°11'510.1
2018-Apr-20 15:30N 51°47' W 008°16'3 5.5
2018-Apr-20 14:59N 51°50' W 008°16'0 0.0
2018-Apr-20 14:29N 51°50' W 008°16'0 0.0
2018-Apr-20 13:59N 51°50' W 008°16'0 0.0
2018-Apr-20 13:29N 51°50' W 008°16'0 0.0
2018-Apr-20 12:59N 51°50' W 008°16'0 0.0
2018-Apr-20 12:29N 51°50' W 008°16'0 0.0
2018-Apr-20 11:59N 51°50' W 008°16'0 0.0
2018-Apr-20 11:29N 51°50' W 008°16'0 0.0
2018-Apr-20 10:59N 51°50' W 008°16'0 0.0
2018-Apr-20 10:29N 51°50' W 008°16'0 0.0
2018-Apr-20 09:59N 51°50' W 008°16'0 0.0
2018-Apr-20 09:29N 51°50' W 008°16'0 0.0
2018-Apr-20 08:59N 51°50' W 008°16'0 0.0
2018-Apr-20 08:29N 51°50' W 008°16'0 0.0
2018-Apr-20 07:59N 51°50' W 008°16'0 0.0
2018-Apr-20 07:29N 51°50' W 008°16'0 0.0
2018-Apr-20 06:59N 51°50' W 008°16'0 0.0
2018-Apr-20 06:29N 51°50' W 008°16'0 0.0
2018-Apr-20 05:59N 51°50' W 008°16'0 0.0
2018-Apr-20 05:29N 51°50' W 008°16'0 0.0
2018-Apr-20 04:59N 51°50' W 008°16'0 0.0
2018-Apr-20 04:29N 51°50' W 008°16'0 0.0
2018-Apr-20 03:59N 51°50' W 008°16'0 0.0
2018-Apr-20 03:29N 51°50' W 008°16'0 0.0
2018-Apr-20 02:59N 51°50' W 008°16'0 0.0
2018-Apr-20 02:29N 51°50' W 008°16'0 0.0
2018-Apr-20 01:59N 51°50' W 008°16'0 0.0
2018-Apr-20 01:29N 51°50' W 008°16'0 0.0
2018-Apr-20 00:59N 51°50' W 008°16'0 0.0
2018-Apr-20 00:29N 51°50' W 008°16'0 0.1
2018-Apr-19 23:59N 51°50' W 008°16'0 0.1
2018-Apr-19 23:29N 51°50' W 008°16'0 0.0
2018-Apr-19 22:59N 51°50' W 008°16'0 0.0
2018-Apr-19 22:29N 51°50' W 008°16'0 0.0
2018-Apr-19 21:59N 51°50' W 008°16'0 0.0
2018-Apr-19 21:29N 51°50' W 008°16'0 0.0
2018-Apr-19 20:59N 51°50' W 008°16'0 0.0
2018-Apr-19 20:29N 51°50' W 008°16'0 0.0
2018-Apr-19 19:59N 51°50' W 008°16'0 0.0
2018-Apr-19 19:29N 51°50' W 008°16'0 0.0
2018-Apr-19 18:59N 51°50' W 008°16'0 0.0
2018-Apr-19 18:29N 51°50' W 008°16'0 0.0
2018-Apr-19 17:59N 51°50' W 008°16'0 0.0
2018-Apr-19 17:29N 51°50' W 008°16'0 0.0
2018-Apr-19 16:59N 51°50' W 008°16'0 0.0
2018-Apr-19 16:29N 51°50' W 008°16'0 0.0
2018-Apr-19 15:59N 51°50' W 008°16'0 0.0
2018-Apr-19 15:29N 51°50' W 008°16'0 0.2
2018-Apr-19 15:00N 51°50' W 008°16'3 5.7
2018-Apr-19 14:30N 51°47' W 008°16'1 2.7
2018-Apr-19 13:59N 51°46' W 008°17'0 0.1
2018-Apr-19 13:29N 51°46' W 008°17'0 0.1
2018-Apr-19 12:59N 51°46' W 008°17'0 0.0
2018-Apr-19 12:26N 51°46' W 008°17'0 0.0
2018-Apr-19 11:59N 51°46' W 008°17'0 0.0
2018-Apr-19 11:29N 51°46' W 008°17'0 0.0
2018-Apr-19 10:56N 51°46' W 008°17'0 0.2
2018-Apr-19 10:29N 51°46' W 008°17'0 0.3
2018-Apr-19 09:59N 51°46' W 008°17'0 0.1
2018-Apr-19 09:29N 51°46' W 008°17'0 0.1
2018-Apr-19 08:59N 51°46' W 008°17'0 0.0
2018-Apr-19 08:29N 51°46' W 008°17'0 0.0
2018-Apr-19 07:59N 51°46' W 008°17'0 0.0
2018-Apr-19 07:29N 51°46' W 008°17'0 0.0
2018-Apr-19 06:59N 51°46' W 008°17'0 0.0
2018-Apr-19 06:29N 51°46' W 008°17'0 0.0
2018-Apr-19 05:59N 51°46' W 008°17'0 0.0
2018-Apr-19 05:29N 51°46' W 008°17'0 0.0
2018-Apr-19 04:59N 51°46' W 008°17'0 0.0
2018-Apr-19 04:29N 51°46' W 008°17'0 0.0
2018-Apr-19 03:59N 51°46' W 008°17'0 0.0
2018-Apr-19 03:29N 51°46' W 008°17'0 0.0
2018-Apr-19 02:59N 51°46' W 008°17'0 0.0
2018-Apr-19 02:29N 51°46' W 008°17'0 0.0
2018-Apr-19 01:59N 51°46' W 008°17'0 0.1
2018-Apr-19 01:29N 51°46' W 008°17'0 0.0
2018-Apr-19 00:59N 51°46' W 008°17'0 0.1
2018-Apr-19 00:29N 51°46' W 008°17'0 0.1
2018-Apr-18 23:59N 51°46' W 008°17'0 0.0
2018-Apr-18 23:29N 51°46' W 008°17'0 0.0
2018-Apr-18 22:59N 51°46' W 008°17'0 0.2
2018-Apr-18 22:29N 51°46' W 008°17'0 0.1
2018-Apr-18 21:59N 51°46' W 008°17'0 0.1
2018-Apr-18 21:29N 51°46' W 008°17'0 0.0
2018-Apr-18 20:59N 51°46' W 008°17'0 0.0
2018-Apr-18 20:29N 51°46' W 008°17'0 0.0
2018-Apr-18 19:59N 51°46' W 008°17'0 0.0
2018-Apr-18 19:29N 51°46' W 008°17'0 0.0
2018-Apr-18 18:59N 51°46' W 008°17'0 0.0
2018-Apr-18 18:29N 51°46' W 008°17'0 0.0
2018-Apr-18 17:59N 51°46' W 008°17'0 0.0
2018-Apr-18 17:29N 51°46' W 008°17'0 0.0
2018-Apr-18 16:59N 51°46' W 008°17'0 0.0
2018-Apr-18 16:26N 51°46' W 008°17'0 0.0
2018-Apr-18 15:59N 51°46' W 008°17'0 0.0
2018-Apr-18 15:29N 51°46' W 008°17'0 0.0
2018-Apr-18 14:59N 51°46' W 008°17'0 0.0
2018-Apr-18 14:29N 51°46' W 008°17'0 0.0
2018-Apr-18 13:59N 51°46' W 008°17'0 0.0
2018-Apr-18 13:29N 51°46' W 008°17'0 0.0
2018-Apr-18 12:59N 51°46' W 008°17'0 0.1
2018-Apr-18 12:29N 51°46' W 008°17'0 0.1
2018-Apr-18 11:59N 51°46' W 008°17'0 0.0
2018-Apr-18 11:29N 51°46' W 008°17'0 0.0
2018-Apr-18 10:59N 51°46' W 008°17'0 0.0
2018-Apr-18 10:29N 51°46' W 008°17'0 0.0
2018-Apr-18 09:59N 51°46' W 008°17'0 0.0
2018-Apr-18 09:29N 51°46' W 008°17'0 0.0
2018-Apr-18 08:59N 51°46' W 008°17'0 0.0
2018-Apr-18 08:29N 51°46' W 008°17'0 0.0
2018-Apr-18 07:59N 51°46' W 008°17'0 0.0
2018-Apr-18 07:29N 51°46' W 008°17'0 0.0
2018-Apr-18 06:59N 51°46' W 008°17'0 0.0
2018-Apr-18 06:29N 51°46' W 008°17'0 0.0
2018-Apr-18 05:59N 51°46' W 008°17'0 0.0
2018-Apr-18 05:29N 51°46' W 008°17'0 0.0
2018-Apr-18 04:59N 51°46' W 008°17'0 0.0
2018-Apr-18 04:29N 51°46' W 008°17'0 0.0
2018-Apr-18 03:59N 51°46' W 008°17'0 0.0
2018-Apr-18 03:29N 51°46' W 008°17'0 0.0
2018-Apr-18 02:59N 51°46' W 008°17'0 0.0
2018-Apr-18 02:29N 51°46' W 008°17'0 0.0
2018-Apr-18 01:59N 51°46' W 008°17'0 0.0
2018-Apr-18 01:29N 51°46' W 008°17'0 0.1
2018-Apr-18 00:59N 51°46' W 008°17'0 0.0
2018-Apr-18 00:29N 51°46' W 008°17'0 0.0
2018-Apr-17 23:59N 51°46' W 008°17'0 0.1
2018-Apr-17 23:29N 51°46' W 008°17'0 0.1
2018-Apr-17 22:59N 51°46' W 008°17'0 0.0
2018-Apr-17 22:29N 51°46' W 008°17'0 0.1
2018-Apr-17 21:59N 51°46' W 008°17'0 0.1
2018-Apr-17 21:29N 51°46' W 008°17'0 0.1
2018-Apr-17 20:59N 51°46' W 008°17'0 0.0
2018-Apr-17 20:29N 51°46' W 008°17'0 0.0
2018-Apr-17 19:59N 51°46' W 008°17'0 0.0
2018-Apr-17 19:29N 51°46' W 008°17'0 0.0
2018-Apr-17 18:59N 51°46' W 008°17'0 0.0
2018-Apr-17 18:29N 51°46' W 008°17'0 0.0
2018-Apr-17 17:59N 51°46' W 008°17'0 0.0
2018-Apr-17 17:30N 51°46' W 008°17'0 0.6
2018-Apr-17 17:00N 51°46' W 008°17'1 1.7
2018-Apr-17 16:31N 51°46' W 008°15'3 6.2
2018-Apr-17 16:01N 51°43' W 008°15'1 1.5
2018-Apr-17 15:30N 51°44' W 008°15'1 1.7
2018-Apr-17 15:00N 51°44' W 008°16'1 1.9
2018-Apr-17 14:30N 51°45' W 008°17'1 1.4
2018-Apr-17 14:00N 51°46' W 008°17'2 3.4
2018-Apr-17 13:30N 51°45' W 008°15'611.7
2018-Apr-17 13:00N 51°40' W 008°09'511.0
2018-Apr-17 12:31N 51°36' W 008°04'611.2
2018-Apr-17 12:01N 51°33' W 007°57'611.8
2018-Apr-17 11:30N 51°28' W 007°50'611.6
2018-Apr-17 11:00N 51°24' W 007°43'611.4
2018-Apr-17 10:30N 51°21' W 007°36'309 8.6
2018-Apr-15 22:41N 46°53' W 003°40'9 9.6
2018-Apr-15 21:41N 46°47' W 003°29'6 9.7
2018-Apr-15 21:07N 46°44' W 003°22'46 9.7
2018-Apr-15 16:23N 46°20' W 002°25'3 7.5
2018-Apr-15 16:01N 46°19' W 002°21'2 4.9
2018-Apr-15 15:30N 46°18' W 002°18'2 4.8
2018-Apr-15 15:00N 46°17' W 002°15'2 4.7
2018-Apr-15 14:30N 46°16' W 002°12'3 5.2
2018-Apr-15 14:00N 46°15' W 002°08'3 5.8
2018-Apr-15 13:30N 46°14' W 002°04'3 6.1
2018-Apr-15 13:00N 46°13' W 001°60'3 6.2
2018-Apr-15 12:31N 46°12' W 001°56'3 6.4
2018-Apr-15 12:01N 46°11' W 001°52'3 6.9
2018-Apr-15 11:31N 46°10' W 001°47'3 6.8
2018-Apr-15 11:01N 46°08' W 001°42'3 6.8
2018-Apr-15 10:30N 46°08' W 001°38'4 7.6
2018-Apr-15 10:01N 46°07' W 001°32'4 8.2
2018-Apr-15 09:31N 46°07' W 001°26'4 8.1
2018-Apr-15 09:01N 46°06' W 001°21'4 7.3
2018-Apr-15 08:30N 46°07' W 001°15'2 4.6
2018-Apr-15 08:00N 46°09' W 001°14'0 0.0
2018-Apr-15 07:30N 46°09' W 001°14'0 0.0
2018-Apr-15 07:00N 46°09' W 001°14'0 0.0
2018-Apr-15 06:30N 46°09' W 001°14'0 0.0
2018-Apr-15 06:00N 46°09' W 001°14'0 0.0
2018-Apr-15 05:30N 46°09' W 001°14'0 0.0
2018-Apr-15 05:00N 46°09' W 001°14'0 0.0
2018-Apr-15 04:30N 46°09' W 001°14'0 0.0
2018-Apr-15 04:00N 46°09' W 001°14'0 0.0
2018-Apr-15 03:30N 46°09' W 001°14'0 0.0
2018-Apr-15 03:00N 46°09' W 001°14'0 0.0
2018-Apr-15 02:30N 46°09' W 001°14'0 0.0
2018-Apr-15 02:00N 46°09' W 001°14'  

Dump ship's entire track history